• Join FlightAware (Why Join?)
  • Login
  • US Flag 
11:13PM EDT


 

Airport Tracker/Info


-or-


 

Live Flight TrackerFlight Track Log ✈ SKW6493 ✈ 09-May-2013 ✈ KSFO - KMFR

Flight Track Log - Related Links

Times and Time Zones

All times are in EDT time to prevent confusion due to time zone crossing. See the SKW6493 flight status page for this flight to view local times or setup timezone preferences in your user account.

Time Position Orientation Groundspeed Altitude Reporting Facility
EDT Latitude Longitude Course Direction KTS MPH feet Rate Location/Type
12:18AM 37.6500 -122.3500 59° Northeast 182 209 2,100  Level Northern Cal TRACON
12:19AM 37.6719 -122.3042 59° Northeast 226 260 3,900 2,700 Climbing Oakland Center
12:20AM 37.7381 -122.2761 19° North 251 289 6,800 2,880 Climbing Oakland Center
12:21AM 37.8142 -122.2761 360° North 271 312 9,800 2,520 Climbing Oakland Center
12:22AM 37.8972 -122.2736 North 294 338 12,000 2,160 Climbing Oakland Center
12:23AM 37.9914 -122.2719 North 327 376 14,200 2,220 Climbing Oakland Center
12:24AM 38.0897 -122.2692 North 346 398 16,600 2,340 Climbing Oakland Center
12:25AM 38.2089 -122.2667 North 358 412 19,100 2,220 Climbing Oakland Center
12:26AM 38.3128 -122.2661 360° North 371 427 21,200 1,860 Climbing Oakland Center
12:27AM 38.4192 -122.2639 North 383 441 22,900 1,560 Climbing Oakland Center
12:28AM 38.5286 -122.2628 360° North 394 453 24,500 1,620 Climbing Oakland Center
12:29AM 38.6406 -122.2611 North 402 463 26,300 1,500 Climbing Oakland Center
12:30AM 38.7611 -122.2589 North 410 472 27,600 1,200 Climbing Oakland Center
12:31AM 38.8786 -122.2586 360° North 420 483 28,800 1,140 Climbing Oakland Center
12:32AM 38.9972 -122.2694 356° North 425 489 30,000 1,080 Climbing Oakland Center
12:33AM 39.1167 -122.2856 354° North 429 494 31,100 960 Climbing Oakland Center
12:34AM 39.2386 -122.3022 354° North 437 503 32,000 420 Climbing Oakland Center
12:35AM 39.3614 -122.3200 354° North 444 511 32,000  Level Oakland Center
12:36AM 39.5047 -122.3403 354° North 452 520 32,000  Level Oakland Center
12:37AM 39.6269 -122.3583 354° North 444 511 32,000  Level Oakland Center
12:38AM 39.7481 -122.3758 354° North 439 505 32,000  Level Oakland Center
12:39AM 39.8700 -122.3942 353° North 439 505 32,000  Level Oakland Center
12:40AM 39.9925 -122.4131 353° North 441 507 32,000  Level Oakland Center
12:41AM 40.1197 -122.4347 353° North 449 517 32,000  Level Oakland Center
12:42AM 40.2503 -122.4508 355° North 456 525 32,000  Level Oakland Center
12:43AM 40.3761 -122.4683 354° North 454 522 32,000  Level Oakland Center
12:44AM 40.5006 -122.4875 353° North 449 517 32,000 -720 Level Oakland Center
12:45AM 40.6267 -122.5044 354° North 453 521 30,600 -1,380 Descending Oakland Center
12:46AM 40.7525 -122.5225 354° North 455 524 29,200 -1,380 Descending Oakland Center
12:47AM 40.8781 -122.5417 353° North 454 522 27,800 -1,560 Descending Oakland Center
12:48AM 41.0000 -122.5581 354° North 445 512 26,100 -1,740 Descending Oakland Center
12:49AM 41.1164 -122.5792 352° North 426 490 24,300 -1,800 Descending Oakland Center
12:50AM 41.2292 -122.5969 353° North 411 473 22,500 -1,920 Descending Oakland Center
12:51AM 41.3506 -122.6128 354° North 398 458 20,500 -1,980 Descending Oakland Center
12:52AM 41.4028 -122.6231 352° North 390 449 19,700 -1,560 Descending Seattle Center
12:53AM 41.4975 -122.6381 353° North 382 440 18,300 -1,380 Descending Seattle Center
12:54AM 41.5986 -122.6508 355° North 368 423 16,900 -1,440 Descending Seattle Center
12:55AM 41.6986 -122.6672 353° North 362 417 15,400 -1,560 Descending Seattle Center
12:56AM 41.7961 -122.6825 353° North 349 402 13,800 -1,500 Descending Seattle Center
12:57AM 41.8906 -122.6961 354° North 345 397 12,400 -1,440 Descending Seattle Center
12:58AM 41.9792 -122.7111 353° North 318 366 11,000 -1,020 Descending Seattle Center
12:59AM 42.0589 -122.7239 353° North 288 331 10,400 -660 Descending Seattle Center
01:00AM 42.1292 -122.7456 347° North 261 300 9,700 -1,140 Descending Seattle Center
01:01AM 42.1919 -122.7769 340° North 241 277 8,100 -2,040 Descending Seattle Center
01:02AM 42.2578 -122.8103 339° North 210 242 5,700 -2,220 Descending Seattle Center
01:03AM 42.2983 -122.8319 338° Northwest 163 188 3,700 -1,680 Descending Seattle Center
01:04AM 42.3344 -122.8519 338° Northwest 145 167 2,300 -1,140 Descending Seattle Center
01:05AM 42.3675 -122.8686 340° North 131 151 1,400 -480 Descending Seattle Center
01:06AM 42.3967 -122.8844 338° Northwest 128 147 1,400  Level Seattle Center